sensor_id;sensor_type;location;lat;lon;timestamp;P1;durP1;ratioP1;P2;durP2;ratioP2
10013;SDS011;45684;48.358;10.746;2023-07-29T00:02:13;453.20;;;426.97;;
10013;SDS011;45684;48.358;10.746;2023-07-29T00:04:43;473.53;;;445.33;;
10013;SDS011;45684;48.358;10.746;2023-07-29T00:07:10;398.57;;;377.20;;
10013;SDS011;45684;48.358;10.746;2023-07-29T00:09:38;454.40;;;429.17;;
10013;SDS011;45684;48.358;10.746;2023-07-29T00:12:06;465.13;;;438.20;;
10013;SDS011;45684;48.358;10.746;2023-07-29T00:14:34;516.03;;;484.13;;
10013;SDS011;45684;48.358;10.746;2023-07-29T00:17:03;554.63;;;519.80;;
10013;SDS011;45684;48.358;10.746;2023-07-29T00:19:31;574.27;;;537.77;;
10013;SDS011;45684;48.358;10.746;2023-07-29T00:22:01;537.00;;;504.23;;
10013;SDS011;45684;48.358;10.746;2023-07-29T00:24:29;506.37;;;475.33;;
10013;SDS011;45684;48.358;10.746;2023-07-29T00:26:57;496.43;;;466.30;;
10013;SDS011;45684;48.358;10.746;2023-07-29T00:29:26;508.70;;;478.13;;
10013;SDS011;45684;48.358;10.746;2023-07-29T00:31:54;437.10;;;412.40;;
10013;SDS011;45684;48.358;10.746;2023-07-29T00:34:21;514.53;;;481.93;;
10013;SDS011;45684;48.358;10.746;2023-07-29T00:36:49;517.90;;;486.07;;
10013;SDS011;45684;48.358;10.746;2023-07-29T00:39:19;566.23;;;529.40;;
10013;SDS011;45684;48.358;10.746;2023-07-29T00:41:47;576.40;;;539.57;;
10013;SDS011;45684;48.358;10.746;2023-07-29T00:44:15;550.80;;;516.87;;
10013;SDS011;45684;48.358;10.746;2023-07-29T00:46:43;421.77;;;398.90;;
10013;SDS011;45684;48.358;10.746;2023-07-29T00:49:13;398.77;;;376.73;;
10013;SDS011;45684;48.358;10.746;2023-07-29T00:51:41;349.50;;;331.43;;
10013;SDS011;45684;48.358;10.746;2023-07-29T00:54:09;210.10;;;200.87;;
10013;SDS011;45684;48.358;10.746;2023-07-29T00:56:40;242.77;;;232.10;;
10013;SDS011;45684;48.358;10.746;2023-07-29T00:59:08;218.77;;;209.23;;
10013;SDS011;45684;48.358;10.746;2023-07-29T01:01:36;257.10;;;245.63;;
10013;SDS011;45684;48.358;10.746;2023-07-29T01:04:04;313.00;;;298.73;;
10013;SDS011;45684;48.358;10.746;2023-07-29T01:06:34;324.53;;;309.93;;
10013;SDS011;45684;48.358;10.746;2023-07-29T01:09:10;292.13;;;279.27;;
10013;SDS011;45684;48.358;10.746;2023-07-29T01:11:44;274.17;;;262.20;;
10013;SDS011;45684;48.358;10.746;2023-07-29T01:14:25;234.40;;;224.57;;
10013;SDS011;45684;48.358;10.746;2023-07-29T01:17:02;215.10;;;206.43;;
10013;SDS011;45684;48.358;10.746;2023-07-29T01:19:40;281.23;;;269.23;;
10013;SDS011;45684;48.358;10.746;2023-07-29T01:22:15;235.23;;;225.97;;
10013;SDS011;45684;48.358;10.746;2023-07-29T01:24:47;196.20;;;188.43;;
10013;SDS011;45684;48.358;10.746;2023-07-29T01:27:14;206.37;;;198.10;;
10013;SDS011;45684;48.358;10.746;2023-07-29T01:29:42;142.60;;;137.00;;
10013;SDS011;45684;48.358;10.746;2023-07-29T01:32:10;113.33;;;109.00;;
10013;SDS011;45684;48.358;10.746;2023-07-29T01:34:47;78.97;;;75.63;;
10013;SDS011;45684;48.358;10.746;2023-07-29T01:37:19;81.33;;;77.97;;
10013;SDS011;45684;48.358;10.746;2023-07-29T01:39:54;79.80;;;75.93;;
10013;SDS011;45684;48.358;10.746;2023-07-29T01:42:25;190.83;;;183.43;;
10013;SDS011;45684;48.358;10.746;2023-07-29T01:44:56;159.97;;;153.60;;
10013;SDS011;45684;48.358;10.746;2023-07-29T01:47:24;117.70;;;113.20;;
10013;SDS011;45684;48.358;10.746;2023-07-29T01:49:54;88.77;;;85.10;;
10013;SDS011;45684;48.358;10.746;2023-07-29T01:52:21;74.27;;;71.00;;
10013;SDS011;45684;48.358;10.746;2023-07-29T01:54:50;78.70;;;75.50;;
10013;SDS011;45684;48.358;10.746;2023-07-29T01:57:19;83.37;;;80.07;;
10013;SDS011;45684;48.358;10.746;2023-07-29T01:59:47;93.73;;;90.10;;
10013;SDS011;45684;48.358;10.746;2023-07-29T02:02:14;94.10;;;90.27;;
10013;SDS011;45684;48.358;10.746;2023-07-29T02:04:42;125.20;;;120.37;;
10013;SDS011;45684;48.358;10.746;2023-07-29T02:07:11;104.43;;;100.27;;
10013;SDS011;45684;48.358;10.746;2023-07-29T02:09:39;93.67;;;90.00;;
10013;SDS011;45684;48.358;10.746;2023-07-29T02:12:07;103.17;;;99.13;;
10013;SDS011;45684;48.358;10.746;2023-07-29T02:14:39;115.03;;;110.57;;
10013;SDS011;45684;48.358;10.746;2023-07-29T02:17:07;145.47;;;139.73;;
10013;SDS011;45684;48.358;10.746;2023-07-29T02:19:35;162.80;;;156.53;;
10013;SDS011;45684;48.358;10.746;2023-07-29T02:22:03;193.53;;;185.90;;
10013;SDS011;45684;48.358;10.746;2023-07-29T02:24:31;241.33;;;231.67;;
10013;SDS011;45684;48.358;10.746;2023-07-29T02:26:59;257.97;;;247.73;;
10013;SDS011;45684;48.358;10.746;2023-07-29T02:29:27;261.77;;;250.97;;
10013;SDS011;45684;48.358;10.746;2023-07-29T02:31:56;297.77;;;285.63;;
10013;SDS011;45684;48.358;10.746;2023-07-29T02:34:24;290.03;;;278.10;;
10013;SDS011;45684;48.358;10.746;2023-07-29T02:36:52;335.17;;;320.83;;
10013;SDS011;45684;48.358;10.746;2023-07-29T02:39:20;337.70;;;323.13;;
10013;SDS011;45684;48.358;10.746;2023-07-29T02:41:49;369.23;;;352.80;;
10013;SDS011;45684;48.358;10.746;2023-07-29T02:44:17;386.43;;;369.03;;
10013;SDS011;45684;48.358;10.746;2023-07-29T02:46:45;331.17;;;316.90;;
10013;SDS011;45684;48.358;10.746;2023-07-29T02:49:15;339.00;;;324.70;;
10013;SDS011;45684;48.358;10.746;2023-07-29T02:51:43;334.20;;;319.77;;
10013;SDS011;45684;48.358;10.746;2023-07-29T02:54:10;364.43;;;347.87;;
10013;SDS011;45684;48.358;10.746;2023-07-29T02:56:38;371.00;;;353.20;;
10013;SDS011;45684;48.358;10.746;2023-07-29T02:59:06;326.83;;;312.57;;
10013;SDS011;45684;48.358;10.746;2023-07-29T03:01:34;326.60;;;312.20;;
10013;SDS011;45684;48.358;10.746;2023-07-29T03:04:02;283.93;;;271.83;;
10013;SDS011;45684;48.358;10.746;2023-07-29T03:06:31;307.03;;;293.77;;
10013;SDS011;45684;48.358;10.746;2023-07-29T03:09:00;275.00;;;263.83;;
10013;SDS011;45684;48.358;10.746;2023-07-29T03:11:28;200.13;;;192.07;;
10013;SDS011;45684;48.358;10.746;2023-07-29T03:13:57;171.43;;;164.63;;
10013;SDS011;45684;48.358;10.746;2023-07-29T03:16:26;235.93;;;226.43;;
10013;SDS011;45684;48.358;10.746;2023-07-29T03:18:56;233.83;;;224.43;;
10013;SDS011;45684;48.358;10.746;2023-07-29T03:21:24;232.30;;;223.17;;
10013;SDS011;45684;48.358;10.746;2023-07-29T03:23:53;197.37;;;189.53;;
10013;SDS011;45684;48.358;10.746;2023-07-29T03:26:21;228.70;;;219.73;;
10013;SDS011;45684;48.358;10.746;2023-07-29T03:28:49;218.20;;;209.63;;
10013;SDS011;45684;48.358;10.746;2023-07-29T03:31:16;268.90;;;257.87;;
10013;SDS011;45684;48.358;10.746;2023-07-29T03:33:45;236.63;;;227.40;;
10013;SDS011;45684;48.358;10.746;2023-07-29T03:36:13;229.40;;;220.10;;
10013;SDS011;45684;48.358;10.746;2023-07-29T03:38:41;224.63;;;215.90;;
10013;SDS011;45684;48.358;10.746;2023-07-29T03:41:12;269.27;;;258.60;;
10013;SDS011;45684;48.358;10.746;2023-07-29T03:43:40;258.73;;;248.40;;
10013;SDS011;45684;48.358;10.746;2023-07-29T03:46:08;162.57;;;156.07;;
10013;SDS011;45684;48.358;10.746;2023-07-29T03:48:39;97.50;;;93.83;;
10013;SDS011;45684;48.358;10.746;2023-07-29T03:51:07;78.93;;;75.97;;
10013;SDS011;45684;48.358;10.746;2023-07-29T03:53:35;83.03;;;79.87;;
10013;SDS011;45684;48.358;10.746;2023-07-29T03:56:03;88.00;;;84.60;;
10013;SDS011;45684;48.358;10.746;2023-07-29T03:58:32;82.03;;;78.83;;
10013;SDS011;45684;48.358;10.746;2023-07-29T04:01:00;161.50;;;155.13;;
10013;SDS011;45684;48.358;10.746;2023-07-29T04:03:28;112.63;;;108.23;;
10013;SDS011;45684;48.358;10.746;2023-07-29T04:05:56;146.20;;;140.37;;
10013;SDS011;45684;48.358;10.746;2023-07-29T04:08:24;144.93;;;139.40;;
10013;SDS011;45684;48.358;10.746;2023-07-29T04:10:52;132.70;;;127.57;;
10013;SDS011;45684;48.358;10.746;2023-07-29T04:13:21;84.40;;;80.93;;
10013;SDS011;45684;48.358;10.746;2023-07-29T04:15:50;79.50;;;76.30;;
10013;SDS011;45684;48.358;10.746;2023-07-29T04:18:18;93.10;;;89.47;;
10013;SDS011;45684;48.358;10.746;2023-07-29T04:20:47;159.77;;;153.37;;
10013;SDS011;45684;48.358;10.746;2023-07-29T04:23:15;172.83;;;165.93;;
10013;SDS011;45684;48.358;10.746;2023-07-29T04:25:43;148.60;;;142.87;;
10013;SDS011;45684;48.358;10.746;2023-07-29T04:28:10;215.90;;;207.70;;
10013;SDS011;45684;48.358;10.746;2023-07-29T04:30:38;174.00;;;167.37;;
10013;SDS011;45684;48.358;10.746;2023-07-29T04:33:07;128.27;;;123.37;;
10013;SDS011;45684;48.358;10.746;2023-07-29T04:35:36;97.80;;;93.97;;
10013;SDS011;45684;48.358;10.746;2023-07-29T04:38:04;96.87;;;93.10;;
10013;SDS011;45684;48.358;10.746;2023-07-29T04:40:32;177.33;;;170.30;;
10013;SDS011;45684;48.358;10.746;2023-07-29T04:43:00;200.03;;;192.23;;
10013;SDS011;45684;48.358;10.746;2023-07-29T04:45:28;144.17;;;138.60;;
10013;SDS011;45684;48.358;10.746;2023-07-29T04:47:57;130.87;;;125.83;;
10013;SDS011;45684;48.358;10.746;2023-07-29T04:50:27;158.43;;;152.30;;
10013;SDS011;45684;48.358;10.746;2023-07-29T04:52:56;156.50;;;150.33;;
10013;SDS011;45684;48.358;10.746;2023-07-29T04:55:24;193.33;;;185.77;;
10013;SDS011;45684;48.358;10.746;2023-07-29T04:57:51;185.83;;;178.27;;
10013;SDS011;45684;48.358;10.746;2023-07-29T05:00:19;243.13;;;232.83;;
10013;SDS011;45684;48.358;10.746;2023-07-29T05:02:47;210.10;;;201.40;;
10013;SDS011;45684;48.358;10.746;2023-07-29T05:05:15;155.00;;;148.73;;
10013;SDS011;45684;48.358;10.746;2023-07-29T05:07:44;83.23;;;79.93;;
10013;SDS011;45684;48.358;10.746;2023-07-29T05:10:12;91.53;;;87.77;;
10013;SDS011;45684;48.358;10.746;2023-07-29T05:12:40;77.73;;;74.57;;
10013;SDS011;45684;48.358;10.746;2023-07-29T05:15:09;96.30;;;92.10;;
10013;SDS011;45684;48.358;10.746;2023-07-29T05:17:37;55.27;;;52.90;;
10013;SDS011;45684;48.358;10.746;2023-07-29T05:20:06;47.97;;;46.03;;
10013;SDS011;45684;48.358;10.746;2023-07-29T05:22:36;57.00;;;54.60;;
10013;SDS011;45684;48.358;10.746;2023-07-29T05:25:06;56.17;;;53.77;;
10013;SDS011;45684;48.358;10.746;2023-07-29T05:27:34;35.67;;;34.17;;
10013;SDS011;45684;48.358;10.746;2023-07-29T05:30:02;29.00;;;27.77;;
10013;SDS011;45684;48.358;10.746;2023-07-29T05:32:31;38.80;;;37.13;;
10013;SDS011;45684;48.358;10.746;2023-07-29T05:34:59;47.13;;;45.03;;
10013;SDS011;45684;48.358;10.746;2023-07-29T05:37:27;56.43;;;54.17;;
10013;SDS011;45684;48.358;10.746;2023-07-29T05:39:55;54.17;;;51.97;;
10013;SDS011;45684;48.358;10.746;2023-07-29T05:42:24;50.90;;;48.93;;
10013;SDS011;45684;48.358;10.746;2023-07-29T05:44:52;51.33;;;49.33;;
10013;SDS011;45684;48.358;10.746;2023-07-29T05:47:20;56.97;;;54.60;;
10013;SDS011;45684;48.358;10.746;2023-07-29T05:49:47;52.17;;;50.13;;
10013;SDS011;45684;48.358;10.746;2023-07-29T05:52:15;50.00;;;47.87;;
10013;SDS011;45684;48.358;10.746;2023-07-29T05:54:43;48.83;;;46.93;;
10013;SDS011;45684;48.358;10.746;2023-07-29T05:57:11;49.73;;;47.73;;
10013;SDS011;45684;48.358;10.746;2023-07-29T05:59:41;46.27;;;44.47;;
10013;SDS011;45684;48.358;10.746;2023-07-29T06:02:09;43.03;;;41.30;;
10013;SDS011;45684;48.358;10.746;2023-07-29T06:04:36;42.97;;;41.17;;
10013;SDS011;45684;48.358;10.746;2023-07-29T06:07:06;49.83;;;47.70;;
10013;SDS011;45684;48.358;10.746;2023-07-29T06:09:34;55.87;;;53.70;;
10013;SDS011;45684;48.358;10.746;2023-07-29T06:12:02;60.87;;;58.43;;
10013;SDS011;45684;48.358;10.746;2023-07-29T06:14:30;51.63;;;49.60;;
10013;SDS011;45684;48.358;10.746;2023-07-29T06:17:00;56.60;;;54.30;;
10013;SDS011;45684;48.358;10.746;2023-07-29T06:19:27;48.00;;;46.13;;
10013;SDS011;45684;48.358;10.746;2023-07-29T06:21:55;53.07;;;50.93;;
10013;SDS011;45684;48.358;10.746;2023-07-29T06:24:23;57.20;;;54.80;;
10013;SDS011;45684;48.358;10.746;2023-07-29T06:26:51;53.27;;;51.00;;
10013;SDS011;45684;48.358;10.746;2023-07-29T06:29:19;53.20;;;51.03;;
10013;SDS011;45684;48.358;10.746;2023-07-29T06:31:47;53.47;;;51.17;;
10013;SDS011;45684;48.358;10.746;2023-07-29T06:34:16;52.80;;;50.60;;
10013;SDS011;45684;48.358;10.746;2023-07-29T06:36:44;51.80;;;49.67;;
10013;SDS011;45684;48.358;10.746;2023-07-29T06:39:12;55.63;;;53.30;;
10013;SDS011;45684;48.358;10.746;2023-07-29T06:41:39;63.53;;;60.80;;
10013;SDS011;45684;48.358;10.746;2023-07-29T06:44:07;63.20;;;60.53;;
10013;SDS011;45684;48.358;10.746;2023-07-29T06:46:35;59.57;;;56.83;;
10013;SDS011;45684;48.358;10.746;2023-07-29T06:49:05;60.73;;;58.20;;
10013;SDS011;45684;48.358;10.746;2023-07-29T06:51:34;78.67;;;75.53;;
10013;SDS011;45684;48.358;10.746;2023-07-29T06:54:02;165.37;;;158.20;;
10013;SDS011;45684;48.358;10.746;2023-07-29T06:56:30;334.67;;;316.67;;
10013;SDS011;45684;48.358;10.746;2023-07-29T06:58:58;323.70;;;307.00;;
10013;SDS011;45684;48.358;10.746;2023-07-29T07:01:26;311.80;;;296.40;;
10013;SDS011;45684;48.358;10.746;2023-07-29T07:03:54;225.17;;;214.97;;
10013;SDS011;45684;48.358;10.746;2023-07-29T07:06:24;191.17;;;182.57;;
10013;SDS011;45684;48.358;10.746;2023-07-29T07:08:53;220.10;;;210.23;;
10013;SDS011;45684;48.358;10.746;2023-07-29T07:11:21;80.73;;;77.30;;
10013;SDS011;45684;48.358;10.746;2023-07-29T07:13:49;92.10;;;87.60;;
10013;SDS011;45684;48.358;10.746;2023-07-29T07:16:18;99.47;;;95.20;;
10013;SDS011;45684;48.358;10.746;2023-07-29T07:18:46;79.87;;;76.47;;
10013;SDS011;45684;48.358;10.746;2023-07-29T07:21:14;86.70;;;83.40;;
10013;SDS011;45684;48.358;10.746;2023-07-29T07:23:42;85.53;;;81.93;;
10013;SDS011;45684;48.358;10.746;2023-07-29T07:26:11;30.83;;;29.53;;
10013;SDS011;45684;48.358;10.746;2023-07-29T07:28:39;14.05;;;13.18;;
10013;SDS011;45684;48.358;10.746;2023-07-29T07:31:07;8.83;;;8.17;;
10013;SDS011;45684;48.358;10.746;2023-07-29T07:33:35;7.47;;;6.97;;
10013;SDS011;45684;48.358;10.746;2023-07-29T07:36:03;6.75;;;6.32;;
10013;SDS011;45684;48.358;10.746;2023-07-29T07:38:31;10.32;;;9.68;;
10013;SDS011;45684;48.358;10.746;2023-07-29T07:40:58;7.20;;;6.80;;
10013;SDS011;45684;48.358;10.746;2023-07-29T07:43:28;8.27;;;7.78;;
10013;SDS011;45684;48.358;10.746;2023-07-29T07:45:59;6.27;;;5.87;;
10013;SDS011;45684;48.358;10.746;2023-07-29T07:48:28;6.55;;;6.05;;
10013;SDS011;45684;48.358;10.746;2023-07-29T07:50:56;6.50;;;6.03;;
10013;SDS011;45684;48.358;10.746;2023-07-29T07:53:24;6.22;;;5.90;;
10013;SDS011;45684;48.358;10.746;2023-07-29T07:55:53;6.35;;;5.93;;
10013;SDS011;45684;48.358;10.746;2023-07-29T07:58:20;6.00;;;5.70;;
10013;SDS011;45684;48.358;10.746;2023-07-29T08:00:50;5.97;;;5.65;;
10013;SDS011;45684;48.358;10.746;2023-07-29T08:03:17;6.43;;;5.93;;
10013;SDS011;45684;48.358;10.746;2023-07-29T08:05:45;6.32;;;6.03;;
10013;SDS011;45684;48.358;10.746;2023-07-29T08:08:14;6.35;;;5.85;;
10013;SDS011;45684;48.358;10.746;2023-07-29T08:10:42;6.43;;;5.93;;
10013;SDS011;45684;48.358;10.746;2023-07-29T08:13:10;6.25;;;5.95;;
10013;SDS011;45684;48.358;10.746;2023-07-29T08:15:37;6.47;;;5.97;;
10013;SDS011;45684;48.358;10.746;2023-07-29T08:18:07;6.53;;;6.10;;
10013;SDS011;45684;48.358;10.746;2023-07-29T08:20:34;6.40;;;6.00;;
10013;SDS011;45684;48.358;10.746;2023-07-29T08:23:02;7.28;;;6.68;;
10013;SDS011;45684;48.358;10.746;2023-07-29T08:25:30;7.20;;;6.70;;
10013;SDS011;45684;48.358;10.746;2023-07-29T08:27:58;7.20;;;6.80;;
10013;SDS011;45684;48.358;10.746;2023-07-29T08:30:26;7.40;;;6.90;;
10013;SDS011;45684;48.358;10.746;2023-07-29T08:32:54;7.43;;;6.93;;
10013;SDS011;45684;48.358;10.746;2023-07-29T08:35:23;7.00;;;6.60;;
10013;SDS011;45684;48.358;10.746;2023-07-29T08:37:51;8.70;;;8.23;;
10013;SDS011;45684;48.358;10.746;2023-07-29T08:40:19;9.38;;;8.88;;
10013;SDS011;45684;48.358;10.746;2023-07-29T08:42:52;16.42;;;15.73;;
10013;SDS011;45684;48.358;10.746;2023-07-29T08:45:23;7.03;;;6.47;;
10013;SDS011;45684;48.358;10.746;2023-07-29T08:47:53;7.10;;;6.70;;
10013;SDS011;45684;48.358;10.746;2023-07-29T08:50:26;8.85;;;8.35;;
10013;SDS011;45684;48.358;10.746;2023-07-29T08:52:54;7.25;;;6.85;;
10013;SDS011;45684;48.358;10.746;2023-07-29T08:55:24;6.63;;;6.13;;
10013;SDS011;45684;48.358;10.746;2023-07-29T08:57:52;5.97;;;5.57;;
10013;SDS011;45684;48.358;10.746;2023-07-29T09:00:21;5.93;;;5.53;;
10013;SDS011;45684;48.358;10.746;2023-07-29T09:02:49;5.75;;;5.40;;
10013;SDS011;45684;48.358;10.746;2023-07-29T09:05:17;5.55;;;5.25;;
10013;SDS011;45684;48.358;10.746;2023-07-29T09:07:47;5.70;;;5.35;;
10013;SDS011;45684;48.358;10.746;2023-07-29T09:10:16;5.65;;;5.35;;
10013;SDS011;45684;48.358;10.746;2023-07-29T09:12:49;5.68;;;5.28;;
10013;SDS011;45684;48.358;10.746;2023-07-29T09:15:26;6.07;;;5.63;;
10013;SDS011;45684;48.358;10.746;2023-07-29T09:17:55;6.15;;;5.75;;
10013;SDS011;45684;48.358;10.746;2023-07-29T09:20:27;5.95;;;5.55;;
10013;SDS011;45684;48.358;10.746;2023-07-29T09:22:58;5.82;;;5.32;;
10013;SDS011;45684;48.358;10.746;2023-07-29T09:25:27;5.43;;;5.03;;
10013;SDS011;45684;48.358;10.746;2023-07-29T09:27:57;5.75;;;5.35;;
10013;SDS011;45684;48.358;10.746;2023-07-29T09:30:27;5.32;;;5.00;;
10013;SDS011;45684;48.358;10.746;2023-07-29T09:32:55;5.93;;;5.43;;
10013;SDS011;45684;48.358;10.746;2023-07-29T09:35:24;5.78;;;5.20;;
10013;SDS011;45684;48.358;10.746;2023-07-29T09:37:53;5.72;;;5.25;;
10013;SDS011;45684;48.358;10.746;2023-07-29T09:40:22;5.80;;;5.30;;
10013;SDS011;45684;48.358;10.746;2023-07-29T09:42:50;6.28;;;5.78;;
10013;SDS011;45684;48.358;10.746;2023-07-29T09:45:20;6.47;;;6.07;;
10013;SDS011;45684;48.358;10.746;2023-07-29T09:47:49;6.88;;;6.28;;
10013;SDS011;45684;48.358;10.746;2023-07-29T09:50:17;5.78;;;5.38;;
10013;SDS011;45684;48.358;10.746;2023-07-29T09:52:45;7.00;;;6.57;;
10013;SDS011;45684;48.358;10.746;2023-07-29T09:55:17;10.15;;;9.55;;
10013;SDS011;45684;48.358;10.746;2023-07-29T09:57:47;22.85;;;21.63;;
10013;SDS011;45684;48.358;10.746;2023-07-29T10:00:14;20.88;;;19.83;;
10013;SDS011;45684;48.358;10.746;2023-07-29T10:02:43;31.55;;;30.13;;
10013;SDS011;45684;48.358;10.746;2023-07-29T10:05:13;45.22;;;43.33;;
10013;SDS011;45684;48.358;10.746;2023-07-29T10:07:41;63.03;;;60.50;;
10013;SDS011;45684;48.358;10.746;2023-07-29T10:10:09;152.73;;;146.67;;
10013;SDS011;45684;48.358;10.746;2023-07-29T10:12:39;197.30;;;188.67;;
10013;SDS011;45684;48.358;10.746;2023-07-29T10:15:10;200.63;;;192.37;;
10013;SDS011;45684;48.358;10.746;2023-07-29T10:17:38;196.30;;;188.17;;
10013;SDS011;45684;48.358;10.746;2023-07-29T10:20:08;239.67;;;229.70;;
10013;SDS011;45684;48.358;10.746;2023-07-29T10:22:38;263.27;;;251.97;;
10013;SDS011;45684;48.358;10.746;2023-07-29T10:25:07;269.90;;;258.17;;
10013;SDS011;45684;48.358;10.746;2023-07-29T10:27:42;282.47;;;269.93;;
10013;SDS011;45684;48.358;10.746;2023-07-29T10:30:14;340.97;;;325.10;;
10013;SDS011;45684;48.358;10.746;2023-07-29T10:32:42;241.30;;;230.80;;
10013;SDS011;45684;48.358;10.746;2023-07-29T10:35:12;208.68;;;200.05;;
10013;SDS011;45684;48.358;10.746;2023-07-29T10:37:40;220.45;;;211.18;;
10013;SDS011;45684;48.358;10.746;2023-07-29T10:40:10;217.98;;;208.75;;
10013;SDS011;45684;48.358;10.746;2023-07-29T10:42:38;236.73;;;226.70;;
10013;SDS011;45684;48.358;10.746;2023-07-29T10:45:29;222.00;;;212.43;;
10013;SDS011;45684;48.358;10.746;2023-07-29T10:48:09;139.32;;;133.85;;
10013;SDS011;45684;48.358;10.746;2023-07-29T10:50:38;36.50;;;35.00;;
10013;SDS011;45684;48.358;10.746;2023-07-29T10:53:06;6.45;;;6.13;;
10013;SDS011;45684;48.358;10.746;2023-07-29T10:55:35;7.25;;;6.85;;
10013;SDS011;45684;48.358;10.746;2023-07-29T10:58:04;6.43;;;6.03;;
10013;SDS011;45684;48.358;10.746;2023-07-29T11:00:38;6.13;;;5.72;;
10013;SDS011;45684;48.358;10.746;2023-07-29T11:03:06;6.68;;;6.28;;
10013;SDS011;45684;48.358;10.746;2023-07-29T11:05:41;6.30;;;5.90;;
10013;SDS011;45684;48.358;10.746;2023-07-29T11:08:20;6.22;;;5.82;;
10013;SDS011;45684;48.358;10.746;2023-07-29T11:10:57;6.68;;;6.18;;
10013;SDS011;45684;48.358;10.746;2023-07-29T11:13:35;6.22;;;5.82;;
10013;SDS011;45684;48.358;10.746;2023-07-29T11:16:06;6.00;;;5.70;;
10013;SDS011;45684;48.358;10.746;2023-07-29T11:18:37;6.30;;;5.72;;
10013;SDS011;45684;48.358;10.746;2023-07-29T11:21:06;5.88;;;5.43;;
10013;SDS011;45684;48.358;10.746;2023-07-29T11:23:34;5.72;;;5.32;;
10013;SDS011;45684;48.358;10.746;2023-07-29T11:26:03;6.18;;;5.68;;
10013;SDS011;45684;48.358;10.746;2023-07-29T11:28:37;6.03;;;5.63;;
10013;SDS011;45684;48.358;10.746;2023-07-29T11:31:07;6.32;;;5.82;;
10013;SDS011;45684;48.358;10.746;2023-07-29T11:33:38;5.90;;;5.60;;
10013;SDS011;45684;48.358;10.746;2023-07-29T11:36:16;6.60;;;6.20;;
10013;SDS011;45684;48.358;10.746;2023-07-29T11:38:45;6.72;;;6.32;;
10013;SDS011;45684;48.358;10.746;2023-07-29T11:41:18;6.80;;;6.45;;
10013;SDS011;45684;48.358;10.746;2023-07-29T11:43:47;6.97;;;6.57;;
10013;SDS011;45684;48.358;10.746;2023-07-29T11:46:16;7.03;;;6.63;;
10013;SDS011;45684;48.358;10.746;2023-07-29T11:48:48;7.05;;;6.43;;
10013;SDS011;45684;48.358;10.746;2023-07-29T11:51:16;5.90;;;5.60;;
10013;SDS011;45684;48.358;10.746;2023-07-29T11:53:44;8.45;;;8.05;;
10013;SDS011;45684;48.358;10.746;2023-07-29T11:56:12;7.25;;;6.78;;
10013;SDS011;45684;48.358;10.746;2023-07-29T11:58:40;6.93;;;6.47;;
10013;SDS011;45684;48.358;10.746;2023-07-29T12:01:09;7.03;;;6.63;;
10013;SDS011;45684;48.358;10.746;2023-07-29T12:03:42;6.07;;;5.68;;
10013;SDS011;45684;48.358;10.746;2023-07-29T12:06:11;5.72;;;5.32;;
10013;SDS011;45684;48.358;10.746;2023-07-29T12:08:39;5.55;;;5.25;;
10013;SDS011;45684;48.358;10.746;2023-07-29T12:11:07;6.10;;;5.70;;
10013;SDS011;45684;48.358;10.746;2023-07-29T12:13:36;5.55;;;5.25;;
10013;SDS011;45684;48.358;10.746;2023-07-29T12:16:03;6.32;;;5.90;;
10013;SDS011;45684;48.358;10.746;2023-07-29T12:18:32;5.30;;;4.85;;
10013;SDS011;45684;48.358;10.746;2023-07-29T12:21:02;5.90;;;5.50;;
10013;SDS011;45684;48.358;10.746;2023-07-29T12:23:30;5.72;;;5.43;;
10013;SDS011;45684;48.358;10.746;2023-07-29T12:25:58;5.28;;;4.97;;
10013;SDS011;45684;48.358;10.746;2023-07-29T12:28:27;5.75;;;5.25;;
10013;SDS011;45684;48.358;10.746;2023-07-29T12:30:56;6.10;;;5.70;;
10013;SDS011;45684;48.358;10.746;2023-07-29T12:33:31;5.70;;;5.40;;
10013;SDS011;45684;48.358;10.746;2023-07-29T12:36:02;5.80;;;5.38;;
10013;SDS011;45684;48.358;10.746;2023-07-29T12:38:30;5.90;;;5.60;;
10013;SDS011;45684;48.358;10.746;2023-07-29T12:40:58;5.95;;;5.65;;
10013;SDS011;45684;48.358;10.746;2023-07-29T12:43:26;5.70;;;5.40;;
10013;SDS011;45684;48.358;10.746;2023-07-29T12:45:53;5.68;;;5.30;;
10013;SDS011;45684;48.358;10.746;2023-07-29T12:48:21;4.82;;;4.63;;
10013;SDS011;45684;48.358;10.746;2023-07-29T12:50:49;5.05;;;4.75;;
10013;SDS011;45684;48.358;10.746;2023-07-29T12:53:19;5.43;;;5.00;;
10013;SDS011;45684;48.358;10.746;2023-07-29T12:55:47;4.65;;;4.45;;
10013;SDS011;45684;48.358;10.746;2023-07-29T12:58:15;5.07;;;4.72;;
10013;SDS011;45684;48.358;10.746;2023-07-29T13:00:42;4.82;;;4.53;;
10013;SDS011;45684;48.358;10.746;2023-07-29T13:03:10;4.82;;;4.60;;
10013;SDS011;45684;48.358;10.746;2023-07-29T13:05:38;5.22;;;4.93;;
10013;SDS011;45684;48.358;10.746;2023-07-29T13:08:06;5.35;;;5.10;;
10013;SDS011;45684;48.358;10.746;2023-07-29T13:10:35;5.10;;;4.80;;
10013;SDS011;45684;48.358;10.746;2023-07-29T13:13:04;5.20;;;4.90;;
10013;SDS011;45684;48.358;10.746;2023-07-29T13:15:31;4.70;;;4.50;;
10013;SDS011;45684;48.358;10.746;2023-07-29T13:17:59;4.75;;;4.55;;
10013;SDS011;45684;48.358;10.746;2023-07-29T13:20:27;5.15;;;4.95;;
10013;SDS011;45684;48.358;10.746;2023-07-29T13:22:55;5.15;;;4.88;;
10013;SDS011;45684;48.358;10.746;2023-07-29T13:25:23;4.80;;;4.60;;
10013;SDS011;45684;48.358;10.746;2023-07-29T13:27:52;5.13;;;4.82;;
10013;SDS011;45684;48.358;10.746;2023-07-29T13:30:20;5.18;;;4.97;;
10013;SDS011;45684;48.358;10.746;2023-07-29T13:32:48;5.20;;;4.90;;
10013;SDS011;45684;48.358;10.746;2023-07-29T13:35:16;5.20;;;4.90;;
10013;SDS011;45684;48.358;10.746;2023-07-29T13:37:44;5.38;;;5.18;;
10013;SDS011;45684;48.358;10.746;2023-07-29T13:40:11;5.15;;;4.93;;
10013;SDS011;45684;48.358;10.746;2023-07-29T13:42:39;5.47;;;5.10;;
10013;SDS011;45684;48.358;10.746;2023-07-29T13:45:09;5.20;;;4.97;;
10013;SDS011;45684;48.358;10.746;2023-07-29T13:47:37;5.05;;;4.75;;
10013;SDS011;45684;48.358;10.746;2023-07-29T13:50:06;5.25;;;4.95;;
10013;SDS011;45684;48.358;10.746;2023-07-29T13:52:35;5.22;;;4.93;;
10013;SDS011;45684;48.358;10.746;2023-07-29T13:55:03;5.40;;;5.10;;
10013;SDS011;45684;48.358;10.746;2023-07-29T13:57:32;5.43;;;5.13;;
10013;SDS011;45684;48.358;10.746;2023-07-29T14:00:00;5.70;;;5.25;;
10013;SDS011;45684;48.358;10.746;2023-07-29T14:02:38;5.35;;;5.05;;
10013;SDS011;45684;48.358;10.746;2023-07-29T14:05:06;5.32;;;5.03;;
10013;SDS011;45684;48.358;10.746;2023-07-29T14:07:34;4.90;;;4.70;;
10013;SDS011;45684;48.358;10.746;2023-07-29T14:10:02;5.00;;;4.70;;
10013;SDS011;45684;48.358;10.746;2023-07-29T14:12:31;4.90;;;4.60;;
10013;SDS011;45684;48.358;10.746;2023-07-29T14:14:59;5.18;;;4.88;;
10013;SDS011;45684;48.358;10.746;2023-07-29T14:17:27;5.05;;;4.80;;
10013;SDS011;45684;48.358;10.746;2023-07-29T14:19:56;5.22;;;4.82;;
10013;SDS011;45684;48.358;10.746;2023-07-29T14:22:24;4.72;;;4.53;;